Time;durP1;ratioP1;P1;durP2;ratioP2;P2;SDS_P1;SDS_P2;PMS_P1;PMS_P2;Temp;Humidity;BMP_temperature;BMP_pressure;BME280_temperature;BME280_humidity;BME280_pressure;Samples;Min_cycle;Max_cycle;Signal;HPM_P1;HPM_P2
2023/06/13 00:01:24;;;;;;;9.15;6.93;;;23.40;90.00;;;;;;5023322;28;20053;-69
2023/06/13 00:03:53;;;;;;;10.38;7.38;;;23.40;89.90;;;;;;5025754;28;20068;-69
2023/06/13 00:06:20;;;;;;;8.95;7.22;;;23.30;90.00;;;;;;5024064;28;20048;-69
2023/06/13 00:08:47;;;;;;;10.30;7.50;;;23.30;90.00;;;;;;5026006;28;20025;-69
2023/06/13 00:11:13;;;;;;;13.60;8.25;;;23.20;89.90;;;;;;5024889;28;20021;-69
2023/06/13 00:13:41;;;;;;;8.80;7.90;;;23.20;89.50;;;;;;5006866;28;20040;-69
2023/06/13 00:16:09;;;;;;;8.23;7.53;;;23.10;90.20;;;;;;5023539;28;20021;-69
2023/06/13 00:18:35;;;;;;;9.60;6.68;;;23.10;90.10;;;;;;5024223;28;20025;-69
2023/06/13 00:21:01;;;;;;;10.10;6.80;;;23.10;90.30;;;;;;5024090;28;20018;-69
2023/06/13 00:23:26;;;;;;;9.70;7.78;;;23.00;90.20;;;;;;5023901;28;20095;-69
2023/06/13 00:25:53;;;;;;;7.75;6.93;;;23.00;90.40;;;;;;5024112;28;20473;-69
2023/06/13 00:28:19;;;;;;;8.88;6.88;;;23.00;90.40;;;;;;5008213;28;20088;-70
2023/06/13 00:30:45;;;;;;;7.88;7.07;;;22.90;90.40;;;;;;5022750;28;20382;-69
2023/06/13 00:33:17;;;;;;;8.00;7.20;;;22.90;90.40;;;;;;5021612;28;20155;-69
2023/06/13 00:35:44;;;;;;;8.18;6.93;;;22.80;90.70;;;;;;5012069;28;20029;-69
2023/06/13 00:38:10;;;;;;;8.90;6.90;;;22.80;90.60;;;;;;5024169;28;20386;-69
2023/06/13 00:40:36;;;;;;;9.43;6.88;;;22.80;90.70;;;;;;5022460;28;20500;-69
2023/06/13 00:43:02;;;;;;;10.00;6.50;;;22.80;90.80;;;;;;5022597;28;20026;-70
2023/06/13 00:45:29;;;;;;;10.90;6.95;;;22.70;90.90;;;;;;5024538;28;20033;-69
2023/06/13 00:47:59;;;;;;;8.77;6.47;;;22.70;90.60;;;;;;5024687;28;20066;-71
2023/06/13 00:50:33;;;;;;;10.35;7.40;;;22.70;90.70;;;;;;5020130;28;20030;-69
2023/06/13 00:53:11;;;;;;;11.70;6.95;;;22.60;90.70;;;;;;5028058;28;20393;-69
2023/06/13 00:55:37;;;;;;;11.73;6.63;;;22.60;90.70;;;;;;5023618;28;20040;-69
2023/06/13 00:58:06;;;;;;;7.20;6.00;;;22.50;90.70;;;;;;5024870;28;20030;-70
2023/06/13 01:00:37;;;;;;;7.43;6.30;;;22.50;90.80;;;;;;5025041;28;20064;-69
2023/06/13 01:03:07;;;;;;;10.45;6.70;;;22.50;90.70;;;;;;5026204;28;20025;-69
2023/06/13 01:05:33;;;;;;;10.73;6.53;;;22.50;90.80;;;;;;5019890;28;20058;-69
2023/06/13 01:08:01;;;;;;;9.27;6.35;;;22.40;91.10;;;;;;5023158;28;20560;-69
2023/06/13 01:10:29;;;;;;;10.50;6.75;;;22.40;91.10;;;;;;5018795;28;20030;-69
2023/06/13 01:13:24;;;;;;;7.10;6.45;;;22.30;91.00;;;;;;5020584;28;20092;-69
2023/06/13 01:16:08;;;;;;;7.53;6.82;;;22.30;91.50;;;;;;5016084;28;20516;-70
2023/06/13 01:18:37;;;;;;;8.45;6.63;;;22.30;91.20;;;;;;5022322;28;20029;-69
2023/06/13 01:21:05;;;;;;;9.93;6.00;;;22.20;91.30;;;;;;5015928;28;20513;-69
2023/06/13 01:23:52;;;;;;;8.55;5.43;;;22.20;91.40;;;;;;5017498;28;20026;-69
2023/06/13 01:26:39;;;;;;;12.00;6.45;;;22.20;91.30;;;;;;5021797;28;20018;-70
2023/06/13 01:29:06;;;;;;;8.18;6.57;;;22.10;91.30;;;;;;5020359;28;20028;-70
2023/06/13 01:31:32;;;;;;;8.98;6.47;;;22.10;91.30;;;;;;5019632;28;20045;-70
2023/06/13 01:33:59;;;;;;;7.55;6.78;;;22.00;91.40;;;;;;5025888;28;20095;-69
2023/06/13 01:36:25;;;;;;;7.65;6.60;;;22.00;91.50;;;;;;5020385;28;20014;-69
2023/06/13 01:38:53;;;;;;;9.85;7.07;;;22.00;91.30;;;;;;5022117;28;20033;-69
2023/06/13 01:41:18;;;;;;;7.05;6.18;;;21.90;91.50;;;;;;5022023;28;20022;-68
2023/06/13 01:43:44;;;;;;;9.52;7.00;;;21.90;91.40;;;;;;5001869;28;20034;-69
2023/06/13 01:46:22;;;;;;;8.55;6.60;;;21.90;91.60;;;;;;5018751;28;20049;-69
2023/06/13 01:49:16;;;;;;;8.07;6.50;;;21.80;91.70;;;;;;5021748;28;20087;-69
2023/06/13 01:51:59;;;;;;;7.53;6.70;;;21.70;91.80;;;;;;5020965;28;20030;-69
2023/06/13 01:54:28;;;;;;;9.30;6.50;;;21.70;91.90;;;;;;5019540;28;20021;-69
2023/06/13 01:56:58;;;;;;;12.02;6.28;;;21.70;92.20;;;;;;5025801;28;20544;-69
2023/06/13 01:59:27;;;;;;;9.40;6.18;;;21.60;92.20;;;;;;5023131;28;20022;-69
2023/06/13 02:01:54;;;;;;;6.80;6.10;;;21.60;92.10;;;;;;5023463;28;20025;-68
2023/06/13 02:04:19;;;;;;;8.38;6.20;;;21.60;92.20;;;;;;5024036;28;20065;-69
2023/06/13 02:06:45;;;;;;;9.20;6.93;;;21.50;92.00;;;;;;5030324;28;20468;-69
2023/06/13 02:09:11;;;;;;;9.18;6.18;;;21.50;91.90;;;;;;5029027;28;20022;-69
2023/06/13 02:11:37;;;;;;;7.97;6.75;;;21.50;92.30;;;;;;5020268;28;20018;-69
2023/06/13 02:14:03;;;;;;;11.43;6.55;;;21.40;92.10;;;;;;5023491;28;20034;-69
2023/06/13 02:16:30;;;;;;;10.45;6.70;;;21.40;92.30;;;;;;5027820;28;20052;-69
2023/06/13 02:18:59;;;;;;;12.77;6.80;;;21.30;92.30;;;;;;5024849;28;20035;-69
2023/06/13 02:21:27;;;;;;;10.05;6.70;;;21.30;92.60;;;;;;5022722;28;20029;-68
2023/06/13 02:23:52;;;;;;;9.18;6.38;;;21.30;92.70;;;;;;5015383;28;20473;-69
2023/06/13 02:26:19;;;;;;;8.25;6.63;;;21.20;92.60;;;;;;5031186;28;20024;-69
2023/06/13 02:28:45;;;;;;;10.82;6.30;;;21.20;92.70;;;;;;5033258;28;20029;-69
2023/06/13 02:31:11;;;;;;;8.70;6.50;;;21.10;92.80;;;;;;5026375;28;20021;-69
2023/06/13 02:33:38;;;;;;;14.45;6.28;;;21.10;92.90;;;;;;5022030;28;20034;-69
2023/06/13 02:36:05;;;;;;;8.98;6.05;;;21.10;93.00;;;;;;5034219;28;20040;-69
2023/06/13 02:38:31;;;;;;;7.90;6.75;;;21.10;93.00;;;;;;5028472;28;20057;-68
2023/06/13 02:40:56;;;;;;;10.13;6.57;;;21.00;93.10;;;;;;5031925;28;20053;-68
2023/06/13 02:43:22;;;;;;;11.77;6.80;;;21.00;93.30;;;;;;5027794;28;20109;-68
2023/06/13 02:45:49;;;;;;;9.93;6.53;;;21.00;93.60;;;;;;5026131;28;20065;-68
2023/06/13 02:48:15;;;;;;;6.82;5.88;;;20.90;93.60;;;;;;5023995;28;20018;-68
2023/06/13 02:50:41;;;;;;;9.45;6.68;;;20.90;93.60;;;;;;5032367;28;20488;-68
2023/06/13 02:53:06;;;;;;;8.00;6.28;;;20.90;93.50;;;;;;5025201;28;20021;-68
2023/06/13 02:55:32;;;;;;;7.72;6.45;;;20.80;93.50;;;;;;5025183;28;20033;-68
2023/06/13 02:57:58;;;;;;;7.18;6.45;;;20.80;93.50;;;;;;5034239;28;20534;-69
2023/06/13 03:00:23;;;;;;;6.95;6.20;;;20.80;93.50;;;;;;5028626;28;20041;-69
2023/06/13 03:02:49;;;;;;;7.72;6.25;;;20.80;93.40;;;;;;5027351;28;20465;-69
2023/06/13 03:05:15;;;;;;;13.23;6.03;;;20.70;93.50;;;;;;5021331;28;20140;-69
2023/06/13 03:07:48;;;;;;;10.07;6.40;;;20.70;93.60;;;;;;5031446;28;20010;-68
2023/06/13 03:10:14;;;;;;;;;;;20.70;93.60;;;;;;5015473;28;20036;-69
2023/06/13 03:12:40;;;;;;;9.05;6.72;;;20.60;93.70;;;;;;5010326;28;20266;-69
2023/06/13 03:15:07;;;;;;;7.78;6.22;;;20.70;93.60;;;;;;5015949;28;20025;-68
2023/06/13 03:17:33;;;;;;;8.70;6.68;;;20.60;93.70;;;;;;5032127;28;20010;-68
2023/06/13 03:19:59;;;;;;;8.27;6.45;;;20.60;93.70;;;;;;5025483;28;20100;-69
2023/06/13 03:22:24;;;;;;;10.13;6.30;;;20.60;93.80;;;;;;5027009;28;20474;-68
2023/06/13 03:24:50;;;;;;;8.70;5.95;;;20.50;93.90;;;;;;5028575;28;20072;-70
2023/06/13 03:27:17;;;;;;;11.02;6.82;;;20.50;93.80;;;;;;5026198;28;20052;-69
2023/06/13 03:29:42;;;;;;;9.60;6.80;;;20.50;93.90;;;;;;5027359;28;20037;-69
2023/06/13 03:32:08;;;;;;;8.15;6.82;;;20.40;93.90;;;;;;5024814;28;20022;-69
2023/06/13 03:34:38;;;;;;;9.98;6.80;;;20.40;93.90;;;;;;5027139;28;20036;-69
2023/06/13 03:37:08;;;;;;;11.32;6.28;;;20.40;93.90;;;;;;5019405;28;20486;-69
2023/06/13 03:39:34;;;;;;;10.68;6.60;;;20.40;93.80;;;;;;5029688;28;20029;-69
2023/06/13 03:42:01;;;;;;;9.75;6.40;;;20.30;93.90;;;;;;5024020;28;20041;-68
2023/06/13 03:44:28;;;;;;;7.45;6.20;;;20.30;94.10;;;;;;5031631;28;20100;-68
2023/06/13 03:46:55;;;;;;;11.55;6.68;;;20.30;94.10;;;;;;5029331;28;20229;-69
2023/06/13 03:49:22;;;;;;;9.35;6.78;;;20.30;94.00;;;;;;5019676;28;20022;-68
2023/06/13 03:51:48;;;;;;;7.85;6.20;;;20.30;94.40;;;;;;5030369;28;20068;-68
2023/06/13 03:54:14;;;;;;;10.10;6.50;;;20.20;94.30;;;;;;5029484;28;20053;-69
2023/06/13 03:56:40;;;;;;;8.85;5.93;;;20.20;94.30;;;;;;5023522;28;20049;-69
2023/06/13 03:59:06;;;;;;;15.55;6.10;;;20.20;94.30;;;;;;5027859;28;20083;-69
2023/06/13 04:01:31;;;;;;;10.10;6.00;;;20.20;94.40;;;;;;5028933;28;20057;-68
2023/06/13 04:03:57;;;;;;;8.70;6.03;;;20.20;94.40;;;;;;5023876;28;20035;-69
2023/06/13 04:06:23;;;;;;;11.15;6.43;;;20.20;94.50;;;;;;5026902;28;20100;-69
2023/06/13 04:08:48;;;;;;;6.47;5.82;;;20.20;94.60;;;;;;5025562;28;20030;-68
2023/06/13 04:11:14;;;;;;;7.03;5.78;;;20.20;94.50;;;;;;5021381;28;20044;-69
2023/06/13 04:13:41;;;;;;;9.48;6.10;;;20.20;94.70;;;;;;5026644;28;20021;-68
2023/06/13 04:16:06;;;;;;;10.20;6.03;;;20.20;94.60;;;;;;5017091;28;20022;-68
2023/06/13 04:18:36;;;;;;;10.50;6.70;;;20.20;94.70;;;;;;5014155;28;20470;-69
2023/06/13 04:21:08;;;;;;;7.40;6.38;;;20.20;94.60;;;;;;5022834;28;20382;-68
2023/06/13 04:23:35;;;;;;;8.18;6.03;;;20.20;94.60;;;;;;5010943;28;20040;-69
2023/06/13 04:26:05;;;;;;;12.68;6.97;;;20.10;94.90;;;;;;5027785;28;20021;-69
2023/06/13 04:28:32;;;;;;;7.88;6.53;;;20.10;94.90;;;;;;5023371;28;20032;-68
2023/06/13 04:31:00;;;;;;;12.07;6.40;;;20.10;94.90;;;;;;5021115;28;20099;-69
2023/06/13 04:33:26;;;;;;;8.38;5.75;;;20.10;95.10;;;;;;5020415;28;20034;-69
2023/06/13 04:35:53;;;;;;;6.35;5.72;;;20.10;95.00;;;;;;5027002;28;20047;-69
2023/06/13 04:38:20;;;;;;;8.55;6.40;;;20.10;95.00;;;;;;5027255;28;20039;-68
2023/06/13 04:40:46;;;;;;;8.05;6.15;;;20.10;95.30;;;;;;5029399;28;20022;-69
2023/06/13 04:43:14;;;;;;;9.27;6.82;;;20.10;95.20;;;;;;5028784;28;20037;-69
2023/06/13 04:45:44;;;;;;;6.57;5.97;;;20.10;95.30;;;;;;5027476;28;20389;-69
2023/06/13 04:48:10;;;;;;;8.00;6.05;;;20.10;95.30;;;;;;5030647;28;20021;-68
2023/06/13 04:50:40;;;;;;;11.13;6.00;;;20.20;95.60;;;;;;5027094;28;20025;-69
2023/06/13 04:53:11;;;;;;;7.78;6.20;;;20.10;95.50;;;;;;5025957;28;20029;-68
2023/06/13 04:55:38;;;;;;;12.25;6.53;;;20.10;95.50;;;;;;5034501;28;20033;-69
2023/06/13 04:58:04;;;;;;;7.35;5.90;;;20.10;95.90;;;;;;5024676;28;20057;-68
2023/06/13 05:00:30;;;;;;;10.30;6.30;;;20.00;96.20;;;;;;5019250;28;20705;-69
2023/06/13 05:02:56;;;;;;;10.23;6.72;;;20.10;96.20;;;;;;5027583;28;20024;-69
2023/06/13 05:05:22;;;;;;;9.75;6.82;;;20.20;96.10;;;;;;5024264;28;20049;-69
2023/06/13 05:07:55;;;;;;;10.05;6.07;;;20.20;96.20;;;;;;5022043;28;20101;-69
2023/06/13 05:10:23;;;;;;;11.90;6.72;;;20.20;96.20;;;;;;5020835;28;20029;-69
2023/06/13 05:12:49;;;;;;;10.02;7.00;;;20.30;96.50;;;;;;5027644;28;20374;-69
2023/06/13 05:15:16;;;;;;;11.40;6.55;;;20.30;96.60;;;;;;5022999;28;20021;-68
2023/06/13 05:17:45;;;;;;;11.10;7.35;;;20.20;96.70;;;;;;5026855;28;20029;-68
2023/06/13 05:20:12;;;;;;;13.10;6.57;;;20.30;96.90;;;;;;5012236;28;20022;-69
2023/06/13 05:22:39;;;;;;;9.32;6.70;;;20.30;96.70;;;;;;5012026;28;20036;-68
2023/06/13 05:25:08;;;;;;;8.20;6.25;;;20.30;96.70;;;;;;5024393;28;20106;-68
2023/06/13 05:27:35;;;;;;;11.20;7.35;;;20.30;96.80;;;;;;5013410;28;20028;-68
2023/06/13 05:30:00;;;;;;;10.52;7.38;;;20.40;96.90;;;;;;5021620;28;20032;-68
2023/06/13 05:32:26;;;;;;;10.40;6.15;;;20.40;97.30;;;;;;5016340;28;20398;-68
2023/06/13 05:34:52;;;;;;;9.10;6.65;;;20.40;97.80;;;;;;5029419;28;20040;-68
2023/06/13 05:37:18;;;;;;;12.90;6.03;;;20.40;97.40;;;;;;5022864;28;20108;-68
2023/06/13 05:39:44;;;;;;;11.65;6.60;;;20.30;97.70;;;;;;5021436;28;20030;-68
2023/06/13 05:42:10;;;;;;;12.70;6.20;;;20.40;97.80;;;;;;5026299;28;20029;-68
2023/06/13 05:44:36;;;;;;;10.57;6.40;;;20.40;97.50;;;;;;5027425;28;20041;-68
2023/06/13 05:47:02;;;;;;;14.68;6.65;;;20.50;98.30;;;;;;5013250;28;20444;-68
2023/06/13 05:49:28;;;;;;;10.38;6.35;;;20.50;98.30;;;;;;5016700;28;20029;-68
2023/06/13 05:51:54;;;;;;;12.68;7.05;;;20.50;98.30;;;;;;5020219;28;20025;-68
2023/06/13 05:54:20;;;;;;;14.07;6.65;;;20.50;98.30;;;;;;5024208;28;20076;-71
2023/06/13 05:56:46;;;;;;;12.07;6.70;;;20.60;98.20;;;;;;5027688;28;20033;-69
2023/06/13 05:59:14;;;;;;;11.63;6.88;;;20.60;99.20;;;;;;5018079;28;20084;-69
2023/06/13 06:01:45;;;;;;;12.50;7.57;;;20.60;98.00;;;;;;5018799;28;20386;-69
2023/06/13 06:04:11;;;;;;;10.18;6.30;;;20.60;97.90;;;;;;5008814;28;20573;-69
2023/06/13 06:06:37;;;;;;;10.73;6.45;;;20.70;98.80;;;;;;5023857;28;20022;-69
2023/06/13 06:09:03;;;;;;;10.65;7.05;;;20.60;97.90;;;;;;5021004;28;20145;-69
2023/06/13 06:11:33;;;;;;;8.65;5.95;;;20.60;98.00;;;;;;5008217;28;20021;-69
2023/06/13 06:13:59;;;;;;;13.05;6.40;;;20.70;98.30;;;;;;5020136;28;20059;-69
2023/06/13 06:16:25;;;;;;;8.13;5.80;;;20.70;98.60;;;;;;5022093;28;20027;-69
2023/06/13 06:18:53;;;;;;;10.73;6.72;;;20.80;98.60;;;;;;5022119;28;20033;-69
2023/06/13 06:21:19;;;;;;;10.77;6.57;;;20.90;98.30;;;;;;5023481;28;20108;-69
2023/06/13 06:23:45;;;;;;;9.07;6.07;;;20.90;98.30;;;;;;5008798;28;20164;-69
2023/06/13 06:26:11;;;;;;;8.75;5.90;;;21.00;98.20;;;;;;5019833;28;20141;-69
2023/06/13 06:28:37;;;;;;;13.88;7.20;;;21.10;99.30;;;;;;5024713;28;20049;-69
2023/06/13 06:31:05;;;;;;;11.15;6.82;;;21.10;98.90;;;;;;5003803;28;20511;-69
2023/06/13 06:33:31;;;;;;;13.07;7.13;;;21.10;99.40;;;;;;5020456;28;20030;-69
2023/06/13 06:35:57;;;;;;;7.57;6.07;;;21.10;99.30;;;;;;5021491;28;20054;-69
2023/06/13 06:38:22;;;;;;;7.43;6.53;;;21.20;99.50;;;;;;5021007;28;20069;-69
2023/06/13 06:40:48;;;;;;;7.55;6.50;;;21.30;97.50;;;;;;5022561;28;20013;-68
2023/06/13 06:43:14;;;;;;;12.25;6.40;;;21.40;98.00;;;;;;5021146;28;20027;-69
2023/06/13 06:45:40;;;;;;;12.20;6.43;;;21.50;98.50;;;;;;5023422;28;20080;-70
2023/06/13 06:48:05;;;;;;;8.95;6.55;;;21.60;98.00;;;;;;5023126;28;20216;-69
2023/06/13 06:50:31;;;;;;;13.60;6.75;;;21.70;97.40;;;;;;5024259;28;20489;-70
2023/06/13 06:52:57;;;;;;;19.02;6.60;;;21.80;97.40;;;;;;5023036;28;20052;-69
2023/06/13 06:55:22;;;;;;;11.80;7.20;;;21.90;97.10;;;;;;5024983;28;20084;-69
2023/06/13 06:57:48;;;;;;;9.13;6.47;;;22.00;96.80;;;;;;5022938;28;20116;-70
2023/06/13 07:00:14;;;;;;;9.65;6.32;;;22.10;96.50;;;;;;5019033;28;20026;-70
2023/06/13 07:02:43;;;;;;;8.73;6.80;;;22.30;96.00;;;;;;5025973;28;20039;-69
2023/06/13 07:05:09;;;;;;;7.68;5.78;;;22.50;95.40;;;;;;5013260;28;20402;-70
2023/06/13 07:07:35;;;;;;;13.60;6.70;;;22.70;94.70;;;;;;5009993;28;20044;-70
2023/06/13 07:10:02;;;;;;;15.48;6.57;;;22.80;94.70;;;;;;5030958;28;20096;-70
2023/06/13 07:12:28;;;;;;;8.57;5.82;;;22.90;94.90;;;;;;5033319;28;20017;-70
2023/06/13 07:14:54;;;;;;;12.02;6.35;;;23.20;93.30;;;;;;5034602;28;20098;-70
2023/06/13 07:17:20;;;;;;;13.63;6.75;;;23.20;93.00;;;;;;5027266;28;20025;-69
2023/06/13 07:19:45;;;;;;;16.20;6.65;;;23.40;92.80;;;;;;5026848;28;20033;-71
2023/06/13 07:22:11;;;;;;;11.00;5.90;;;23.50;93.20;;;;;;5026833;28;20025;-69
2023/06/13 07:24:37;;;;;;;9.60;6.00;;;23.60;92.20;;;;;;5015290;28;20038;-69
2023/06/13 07:27:03;;;;;;;10.82;6.60;;;23.60;93.60;;;;;;5027575;28;20013;-70
2023/06/13 07:29:28;;;;;;;9.50;5.35;;;23.70;92.40;;;;;;5022096;28;20628;-70
2023/06/13 07:31:54;;;;;;;9.40;6.72;;;23.80;94.20;;;;;;5030709;28;20029;-70
2023/06/13 07:34:20;;;;;;;9.45;6.40;;;24.00;92.80;;;;;;5030117;28;20493;-70
2023/06/13 07:36:45;;;;;;;13.80;6.95;;;24.20;92.30;;;;;;5025232;28;20029;-70
2023/06/13 07:39:12;;;;;;;11.15;7.28;;;24.30;92.50;;;;;;5027562;28;20053;-70
2023/06/13 07:41:38;;;;;;;10.38;6.43;;;24.30;90.90;;;;;;5022269;28;20022;-70
2023/06/13 07:44:05;;;;;;;11.00;6.97;;;24.40;93.30;;;;;;5023136;28;20045;-70
2023/06/13 07:46:31;;;;;;;8.68;6.57;;;24.50;91.50;;;;;;5013955;28;20030;-73
2023/06/13 07:48:57;;;;;;;9.55;6.20;;;24.40;91.90;;;;;;5027864;28;20392;-72
2023/06/13 07:51:22;;;;;;;11.38;5.78;;;24.70;91.10;;;;;;5026881;28;20049;-71
2023/06/13 07:53:48;;;;;;;7.95;6.25;;;24.80;91.80;;;;;;5028548;28;20505;-71
2023/06/13 07:56:13;;;;;;;10.30;6.65;;;24.90;90.80;;;;;;5023280;28;20045;-71
2023/06/13 07:58:39;;;;;;;12.80;5.80;;;25.00;90.90;;;;;;5026645;28;20500;-71
2023/06/13 08:01:05;;;;;;;8.27;6.10;;;25.00;91.60;;;;;;5025770;28;20040;-70
2023/06/13 08:03:31;;;;;;;13.13;6.32;;;25.10;91.70;;;;;;5022218;28;20049;-70
2023/06/13 08:05:57;;;;;;;9.93;6.63;;;25.10;90.70;;;;;;5022572;28;20041;-70
2023/06/13 08:08:23;;;;;;;8.85;6.68;;;25.20;92.30;;;;;;5022038;28;20048;-70
2023/06/13 08:10:48;;;;;;;7.10;5.93;;;25.40;89.10;;;;;;5027858;28;20406;-70
2023/06/13 08:13:14;;;;;;;8.60;6.50;;;25.60;88.20;;;;;;5022922;28;20377;-70
2023/06/13 08:15:40;;;;;;;11.55;5.93;;;25.70;89.20;;;;;;5020706;28;20036;-71
2023/06/13 08:18:06;;;;;;;12.40;6.53;;;25.80;89.50;;;;;;5020034;28;20051;-70
2023/06/13 08:20:31;;;;;;;9.48;6.00;;;25.80;87.90;;;;;;5023609;28;20024;-71
2023/06/13 08:22:59;;;;;;;13.45;6.53;;;25.70;90.60;;;;;;5004252;28;20484;-71
2023/06/13 08:25:25;;;;;;;7.10;5.90;;;25.80;88.70;;;;;;5024069;28;20179;-71
2023/06/13 08:27:52;;;;;;;9.60;5.60;;;25.80;89.50;;;;;;5028921;28;20049;-70
2023/06/13 08:30:18;;;;;;;9.73;6.45;;;25.90;88.00;;;;;;5024846;28;20099;-70
2023/06/13 08:32:46;;;;;;;10.13;6.13;;;25.90;87.30;;;;;;5021968;28;20137;-70
2023/06/13 08:35:12;;;;;;;8.68;5.93;;;26.00;88.80;;;;;;5025701;28;20076;-70
2023/06/13 08:37:38;;;;;;;6.15;5.55;;;26.20;90.20;;;;;;5027781;28;20030;-70
2023/06/13 08:40:09;;;;;;;17.90;7.28;;;26.30;88.60;;;;;;5025782;28;20052;-70
2023/06/13 08:42:37;;;;;;;9.75;6.47;;;26.50;87.60;;;;;;5013686;28;20407;-70
2023/06/13 08:45:03;;;;;;;10.95;6.10;;;26.50;87.20;;;;;;5022198;28;20083;-70
2023/06/13 08:47:29;;;;;;;12.02;6.40;;;26.70;87.00;;;;;;5008989;28;20029;-70
2023/06/13 08:49:54;;;;;;;12.00;6.68;;;26.90;86.50;;;;;;5026531;28;20033;-72
2023/06/13 08:52:23;;;;;;;8.57;6.07;;;26.90;82.10;;;;;;5026330;28;20029;-70
2023/06/13 08:54:54;;;;;;;12.25;5.88;;;27.00;88.50;;;;;;5013692;28;20022;-71
2023/06/13 08:57:25;;;;;;;7.55;6.75;;;27.00;87.10;;;;;;5026811;28;20044;-70
2023/06/13 08:59:53;;;;;;;6.93;5.83;;;27.00;84.00;;;;;;5023495;28;20033;-71
2023/06/13 09:02:24;;;;;;;10.82;5.82;;;27.20;82.70;;;;;;5018103;28;20335;-71
2023/06/13 09:04:51;;;;;;;11.60;6.63;;;27.30;85.10;;;;;;5022970;28;20077;-71
2023/06/13 09:07:18;;;;;;;7.32;6.60;;;27.40;83.90;;;;;;5018230;28;20474;-72
2023/06/13 09:09:45;;;;;;;10.18;6.05;;;27.50;82.60;;;;;;5001677;28;20071;-71
2023/06/13 09:12:16;;;;;;;7.85;6.07;;;27.70;83.90;;;;;;5021196;28;20074;-73
2023/06/13 09:14:42;;;;;;;9.38;6.22;;;27.70;80.30;;;;;;5023137;28;20026;-73
2023/06/13 09:17:08;;;;;;;10.48;6.50;;;27.80;83.00;;;;;;5022814;28;20037;-73
2023/06/13 09:19:35;;;;;;;7.75;6.55;;;28.00;83.20;;;;;;5022848;28;20017;-72
2023/06/13 09:22:00;;;;;;;6.13;5.50;;;27.80;82.00;;;;;;5005275;28;20619;-72
2023/06/13 09:24:27;;;;;;;9.57;6.15;;;28.10;81.60;;;;;;5022972;28;20029;-71
2023/06/13 09:26:53;;;;;;;6.50;4.93;;;28.10;82.00;;;;;;5021295;28;20473;-72
2023/06/13 09:29:18;;;;;;;7.07;5.60;;;28.20;79.00;;;;;;5019308;28;20039;-71
2023/06/13 09:31:44;;;;;;;9.30;5.30;;;28.30;78.20;;;;;;5021805;28;20071;-71
2023/06/13 09:34:15;;;;;;;10.52;5.25;;;28.50;78.20;;;;;;5022593;28;20061;-70
2023/06/13 09:36:41;;;;;;;12.10;5.60;;;28.50;77.40;;;;;;5022228;28;20025;-70
2023/06/13 09:39:07;;;;;;;7.57;5.90;;;28.70;78.90;;;;;;5021718;28;20060;-71
2023/06/13 09:41:34;;;;;;;7.07;5.70;;;28.70;79.10;;;;;;5023490;28;20461;-71
2023/06/13 09:44:04;;;;;;;11.35;5.88;;;29.10;77.10;;;;;;5022774;28;20021;-71
2023/06/13 09:46:34;;;;;;;5.50;4.97;;;29.00;72.20;;;;;;5022382;28;20477;-70
2023/06/13 09:49:01;;;;;;;5.88;5.20;;;29.00;75.30;;;;;;5021217;28;20010;-72
2023/06/13 09:51:31;;;;;;;7.15;5.18;;;28.90;69.90;;;;;;5022046;28;20832;-71
2023/06/13 09:53:58;;;;;;;7.68;5.60;;;29.00;71.20;;;;;;5022238;28;20013;-71
2023/06/13 09:56:23;;;;;;;7.15;5.28;;;29.30;74.70;;;;;;5022102;28;20104;-71
2023/06/13 09:58:51;;;;;;;6.47;5.07;;;29.40;68.60;;;;;;5023970;28;20116;-71
2023/06/13 10:01:18;;;;;;;9.20;5.80;;;29.30;72.20;;;;;;5021227;28;20075;-71
2023/06/13 10:03:44;;;;;;;7.25;5.95;;;28.90;73.10;;;;;;5023660;28;20038;-71
2023/06/13 10:06:11;;;;;;;10.43;5.25;;;29.30;72.90;;;;;;5022024;28;20099;-71
2023/06/13 10:08:37;;;;;;;8.15;5.85;;;29.30;72.80;;;;;;5021658;28;20026;-72
2023/06/13 10:11:08;;;;;;;5.90;5.20;;;29.50;68.30;;;;;;5021678;28;20097;-72
2023/06/13 10:13:59;;;;;;;5.75;5.10;;;29.80;75.20;;;;;;5009043;28;20500;-71
2023/06/13 10:16:26;;;;;;;7.28;4.80;;;29.90;71.20;;;;;;5023018;28;20049;-72
2023/06/13 10:18:53;;;;;;;8.65;5.30;;;30.10;68.30;;;;;;5021741;28;20017;-72
2023/06/13 10:21:21;;;;;;;11.52;5.40;;;30.30;65.70;;;;;;5021664;28;20117;-73
2023/06/13 10:23:49;;;;;;;7.63;5.13;;;30.30;69.90;;;;;;5021357;28;20025;-73
2023/06/13 10:26:40;;;;;;;13.43;5.00;;;30.60;67.60;;;;;;5022284;28;20029;-72
2023/06/13 10:29:05;;;;;;;6.20;4.75;;;30.50;65.70;;;;;;5020419;28;20151;-74
2023/06/13 10:31:48;;;;;;;6.60;4.85;;;30.50;68.40;;;;;;5020496;28;20659;-73
2023/06/13 10:34:28;;;;;;;7.95;4.93;;;30.50;65.30;;;;;;5021626;28;20029;-73
2023/06/13 10:37:32;;;;;;;7.30;5.35;;;30.60;66.40;;;;;;5026545;28;20024;-72
2023/06/13 10:40:20;;;;;;;7.35;4.72;;;30.80;69.20;;;;;;5006907;28;20029;-72
2023/06/13 10:42:53;;;;;;;5.80;5.10;;;30.70;64.40;;;;;;5025695;28;20033;-71
2023/06/13 10:45:23;;;;;;;11.88;4.72;;;30.50;62.60;;;;;;5025784;28;20043;-71
2023/06/13 10:47:50;;;;;;;10.02;5.55;;;30.40;65.60;;;;;;5012651;28;20027;-71
2023/06/13 10:50:17;;;;;;;9.73;5.25;;;30.60;67.90;;;;;;5024757;28;20048;-72
2023/06/13 10:52:52;;;;;;;7.28;4.65;;;30.70;67.60;;;;;;5026507;28;20071;-71
2023/06/13 10:55:26;;;;;;;8.02;4.93;;;30.80;68.80;;;;;;5012975;28;20024;-72
2023/06/13 10:57:54;;;;;;;7.88;4.93;;;30.70;67.70;;;;;;5026816;28;20038;-71
2023/06/13 11:00:28;;;;;;;8.88;5.18;;;30.60;64.70;;;;;;5024634;28;20084;-72
2023/06/13 11:03:06;;;;;;;6.20;5.70;;;30.70;64.80;;;;;;5028074;28;20475;-73
2023/06/13 11:05:48;;;;;;;7.38;5.43;;;30.70;67.40;;;;;;5024139;28;20159;-73
2023/06/13 11:08:22;;;;;;;6.18;5.43;;;30.90;64.20;;;;;;5023872;28;20021;-73
2023/06/13 11:10:50;;;;;;;6.93;5.35;;;30.80;63.30;;;;;;5023764;28;20029;-73
2023/06/13 11:13:21;;;;;;;7.05;5.47;;;31.00;65.60;;;;;;5025039;28;20028;-72
2023/06/13 11:15:50;;;;;;;5.50;5.00;;;31.00;64.30;;;;;;5009091;28;20033;-72
2023/06/13 11:18:19;;;;;;;8.02;5.60;;;30.90;66.70;;;;;;5024220;28;20080;-72
2023/06/13 11:20:56;;;;;;;5.68;4.88;;;31.00;63.20;;;;;;5023624;28;20473;-73
2023/06/13 11:23:35;;;;;;;5.82;5.22;;;31.00;63.20;;;;;;5024558;28;20078;-72
2023/06/13 11:26:00;;;;;;;8.13;4.68;;;30.90;62.90;;;;;;5023575;28;20401;-73
2023/06/13 11:28:26;;;;;;;9.48;4.68;;;31.30;61.70;;;;;;5023575;28;20104;-73
2023/06/13 11:30:52;;;;;;;5.20;4.70;;;31.20;63.00;;;;;;5025568;28;20035;-73
2023/06/13 11:33:19;;;;;;;6.78;5.00;;;31.10;62.20;;;;;;5025631;28;20048;-73
2023/06/13 11:35:56;;;;;;;7.43;4.50;;;31.10;61.40;;;;;;5025926;28;20504;-72
2023/06/13 11:38:31;;;;;;;6.93;5.05;;;31.30;60.80;;;;;;5023462;28;20018;-72
2023/06/13 11:40:58;;;;;;;8.55;4.20;;;31.40;59.70;;;;;;5023314;28;20029;-73
2023/06/13 11:43:25;;;;;;;7.97;4.80;;;31.50;60.40;;;;;;5024519;28;20017;-73
2023/06/13 11:45:59;;;;;;;5.03;4.55;;;31.20;59.10;;;;;;5025796;28;20112;-72
2023/06/13 11:48:25;;;;;;;6.93;4.60;;;31.20;65.10;;;;;;5026470;28;20029;-72
2023/06/13 11:50:51;;;;;;;6.55;4.43;;;31.40;62.00;;;;;;5008501;28;20033;-72
2023/06/13 11:53:18;;;;;;;5.63;5.13;;;31.50;59.90;;;;;;5022875;28;20355;-73
2023/06/13 11:55:45;;;;;;;9.77;4.95;;;31.60;62.40;;;;;;5023872;28;20075;-72
2023/06/13 11:58:10;;;;;;;7.05;4.93;;;31.50;60.10;;;;;;5022378;28;20104;-73
2023/06/13 12:00:49;;;;;;;5.22;4.70;;;31.50;62.90;;;;;;5024031;28;20679;-73
2023/06/13 12:03:19;;;;;;;6.75;5.03;;;31.60;61.20;;;;;;5024000;28;20052;-72
2023/06/13 12:05:44;;;;;;;5.13;4.63;;;31.50;58.90;;;;;;5025493;28;20033;-75
2023/06/13 12:08:11;;;;;;;5.35;4.50;;;31.40;57.90;;;;;;5023272;28;20048;-73
2023/06/13 12:10:37;;;;;;;7.40;4.78;;;31.70;62.50;;;;;;5022735;28;20386;-73
2023/06/13 12:13:03;;;;;;;5.95;5.35;;;31.40;60.40;;;;;;5023197;28;20469;-72
2023/06/13 12:15:28;;;;;;;5.72;4.90;;;31.50;58.50;;;;;;5025060;28;20037;-76
2023/06/13 12:18:02;;;;;;;6.43;4.90;;;31.70;59.50;;;;;;5026152;28;20025;-73
2023/06/13 12:20:29;;;;;;;7.03;5.47;;;31.70;60.30;;;;;;5023639;28;20010;-72
2023/06/13 12:22:59;;;;;;;8.77;5.05;;;31.60;58.70;;;;;;5006850;28;20021;-72
2023/06/13 12:25:28;;;;;;;23.83;6.78;;;31.70;59.20;;;;;;5022750;28;20041;-73
2023/06/13 12:27:55;;;;;;;14.25;6.22;;;31.80;60.90;;;;;;5023449;28;20394;-74
2023/06/13 12:30:21;;;;;;;5.72;5.18;;;32.00;58.00;;;;;;5023228;28;20028;-74
2023/06/13 12:32:48;;;;;;;9.13;5.50;;;31.80;59.00;;;;;;5023824;28;20036;-72
2023/06/13 12:35:20;;;;;;;5.47;4.65;;;31.70;58.90;;;;;;5024412;28;20032;-73
2023/06/13 12:37:59;;;;;;;6.45;5.10;;;32.10;63.10;;;;;;5024024;28;20044;-74
2023/06/13 12:40:35;;;;;;;8.02;5.25;;;31.90;59.80;;;;;;5022675;28;20036;-74
2023/06/13 12:43:04;;;;;;;6.93;4.80;;;31.80;61.50;;;;;;5024030;28;20112;-73
2023/06/13 12:45:31;;;;;;;5.03;4.57;;;32.00;62.00;;;;;;5024945;28;20041;-72
2023/06/13 12:47:57;;;;;;;6.72;5.13;;;32.00;59.20;;;;;;5023963;28;20022;-72